createdAt,value
2019-03-11T00:01:46.904Z,99174.65
2019-03-11T00:04:14.783Z,99162.94
2019-03-11T00:06:41.979Z,99178.67
2019-03-11T00:09:08.659Z,99174.45
2019-03-11T00:11:35.363Z,99170.69
2019-03-11T00:14:02.197Z,99176.80
2019-03-11T00:16:29.015Z,99162.59
2019-03-11T00:18:55.788Z,99178.03
2019-03-11T00:21:22.361Z,99163.50
2019-03-11T00:23:49.111Z,99134.38
2019-03-11T00:26:15.781Z,99165.42
2019-03-11T00:28:42.525Z,99172.08
2019-03-11T00:31:09.195Z,99173.38
2019-03-11T00:33:35.842Z,99156.56
2019-03-11T00:36:02.634Z,99164.13
2019-03-11T00:38:29.363Z,99177.54
2019-03-11T00:40:56.172Z,99178.39
2019-03-11T00:43:22.909Z,99169.09
2019-03-11T00:45:49.605Z,99172.92
2019-03-11T00:48:16.398Z,99182.66
2019-03-11T00:50:43.072Z,99171.15
2019-03-11T00:53:09.932Z,99169.95
2019-03-11T00:55:36.618Z,99187.39
2019-03-11T00:58:03.449Z,99187.75
2019-03-11T01:00:32.339Z,99183.11
2019-03-11T01:02:59.174Z,99185.19
2019-03-11T01:05:25.843Z,99187.79
2019-03-11T01:07:52.539Z,99185.02
2019-03-11T01:10:19.315Z,99186.09
2019-03-11T01:12:46.012Z,99180.05
2019-03-11T01:15:12.794Z,99187.45
2019-03-11T01:17:39.570Z,99157.33
2019-03-11T01:20:06.413Z,99151.05
2019-03-11T01:22:33.100Z,99178.63
2019-03-11T01:24:59.816Z,99176.22
2019-03-11T01:27:26.491Z,99177.35
2019-03-11T01:29:53.187Z,99176.98
2019-03-11T01:32:19.864Z,99164.61
2019-03-11T01:34:46.507Z,99161.46
2019-03-11T01:37:13.081Z,99165.52
2019-03-11T01:39:39.700Z,99155.48
2019-03-11T01:42:06.377Z,99151.31
2019-03-11T01:44:33.221Z,99138.03
2019-03-11T01:46:59.899Z,99142.59
2019-03-11T01:49:26.604Z,99133.66
2019-03-11T01:51:53.290Z,99139.23
2019-03-11T01:54:19.898Z,99122.72
2019-03-11T01:56:46.571Z,99132.50
2019-03-11T01:59:13.376Z,99126.84
2019-03-11T02:01:40.048Z,99122.45
2019-03-11T02:04:06.743Z,99112.41
2019-03-11T02:06:33.415Z,99122.91
2019-03-11T02:09:00.025Z,99101.44
2019-03-11T02:11:26.818Z,99110.59
2019-03-11T02:13:53.628Z,99110.39
2019-03-11T02:16:20.312Z,99099.95
2019-03-11T02:18:47.023Z,99085.64
2019-03-11T02:21:13.701Z,99095.23
2019-03-11T02:23:40.515Z,99080.14
2019-03-11T02:26:07.513Z,99116.06
2019-03-11T02:28:34.378Z,99143.66
2019-03-11T02:31:01.498Z,99170.13
2019-03-11T02:33:28.626Z,99151.87
2019-03-11T02:35:55.744Z,99192.25
2019-03-11T02:38:22.508Z,99181.98
2019-03-11T02:40:49.376Z,99179.91
2019-03-11T02:43:16.495Z,99170.58
2019-03-11T02:45:43.539Z,99175.87
2019-03-11T02:48:11.033Z,99172.13
2019-03-11T02:50:38.919Z,99119.73
2019-03-11T02:53:06.098Z,99150.73
2019-03-11T02:55:33.182Z,99098.99
2019-03-11T02:58:00.434Z,99163.51
2019-03-11T03:00:27.514Z,99113.79
2019-03-11T03:03:02.083Z,99178.48
2019-03-11T03:05:41.346Z,99105.12
2019-03-11T03:08:08.346Z,99154.86
2019-03-11T03:10:35.043Z,99109.52
2019-03-11T03:13:01.860Z,99091.33
2019-03-11T03:15:28.868Z,99097.64
2019-03-11T03:17:55.665Z,99107.32
2019-03-11T03:20:22.376Z,99087.26
2019-03-11T03:22:49.070Z,99094.55
2019-03-11T03:25:15.868Z,99093.27
2019-03-11T03:27:42.634Z,99093.55
2019-03-11T03:30:12.006Z,99085.58
2019-03-11T03:32:38.606Z,99095.91
2019-03-11T03:35:05.519Z,99102.59
2019-03-11T03:37:32.298Z,99101.58
2019-03-11T03:39:58.892Z,99096.38
2019-03-11T03:42:25.810Z,99088.26
2019-03-11T03:45:20.820Z,99094.00
2019-03-11T03:47:47.648Z,99093.91
2019-03-11T03:50:14.434Z,99105.16
2019-03-11T03:52:41.040Z,99073.91
2019-03-11T03:55:07.837Z,99069.63
2019-03-11T03:57:34.657Z,99112.20
2019-03-11T04:00:01.446Z,99096.13
2019-03-11T04:02:28.248Z,99116.92
2019-03-11T04:04:55.030Z,99114.02
2019-03-11T04:07:22.109Z,99111.36
2019-03-11T04:09:50.091Z,99129.69
2019-03-11T04:12:16.800Z,99183.02
2019-03-11T04:14:43.505Z,99130.34
2019-03-11T04:17:10.332Z,99110.17
2019-03-11T04:19:37.112Z,99136.47
2019-03-11T04:22:03.935Z,99135.64
2019-03-11T04:24:30.741Z,99142.86
2019-03-11T04:26:59.360Z,99137.64
2019-03-11T04:29:26.143Z,99134.34
2019-03-11T04:31:53.342Z,99137.25
2019-03-11T04:34:20.133Z,99131.25
2019-03-11T04:36:46.937Z,99136.81
2019-03-11T04:39:13.907Z,99138.09
2019-03-11T04:41:40.740Z,99122.20
2019-03-11T04:44:07.821Z,99125.94
2019-03-11T04:46:34.623Z,99114.53
2019-03-11T04:49:01.526Z,99112.44
2019-03-11T04:51:28.330Z,99116.02
2019-03-11T04:53:55.117Z,99129.44
2019-03-11T04:56:22.332Z,99111.98
2019-03-11T04:58:49.116Z,99109.69
2019-03-11T05:01:15.915Z,99122.41
2019-03-11T05:03:42.743Z,99173.38
2019-03-11T05:06:09.743Z,99122.44
2019-03-11T05:08:36.557Z,99121.60
2019-03-11T05:11:03.345Z,99117.86
2019-03-11T05:13:30.475Z,99115.02
2019-03-11T05:15:57.186Z,99130.20
2019-03-11T05:18:23.893Z,99134.05
2019-03-11T05:20:50.573Z,99133.42
2019-03-11T05:23:17.298Z,99131.75
2019-03-11T05:25:43.989Z,99129.09
2019-03-11T05:28:10.795Z,99139.95
2019-03-11T05:30:37.494Z,99139.31
2019-03-11T05:33:04.315Z,99142.80
2019-03-11T05:35:42.390Z,99134.09
2019-03-11T05:38:08.993Z,99170.20
2019-03-11T05:40:36.114Z,99147.64
2019-03-11T05:43:03.037Z,99129.20
2019-03-11T05:45:29.720Z,99139.33
2019-03-11T05:47:56.453Z,99140.60
2019-03-11T05:50:23.152Z,99141.72
2019-03-11T05:52:53.728Z,99120.44
2019-03-11T05:55:20.691Z,99133.42
2019-03-11T05:57:47.723Z,99136.32
2019-03-11T06:00:17.789Z,99135.41
2019-03-11T06:02:47.324Z,99132.94
2019-03-11T06:05:14.099Z,99113.59
2019-03-11T06:07:42.565Z,99131.56
2019-03-11T06:10:10.089Z,99139.44
2019-03-11T06:12:36.885Z,99134.41
2019-03-11T06:15:04.898Z,99131.21
2019-03-11T06:17:31.712Z,99123.83
2019-03-11T06:20:12.406Z,99141.09
2019-03-11T06:22:38.780Z,99145.28
2019-03-11T06:25:05.620Z,99121.41
2019-03-11T06:27:32.309Z,99130.67
2019-03-11T06:29:59.013Z,99147.40
2019-03-11T06:32:25.800Z,99137.91
2019-03-11T06:34:52.508Z,99123.92
2019-03-11T06:37:19.309Z,99122.91
2019-03-11T06:39:45.929Z,99041.52
2019-03-11T06:42:12.634Z,99142.00
2019-03-11T06:44:39.352Z,99148.59
2019-03-11T06:47:05.962Z,99150.25
2019-03-11T06:49:32.632Z,99154.25
2019-03-11T06:51:59.229Z,99144.94
2019-03-11T06:54:25.940Z,99140.08
2019-03-11T06:56:52.528Z,99154.05
2019-03-11T06:59:19.140Z,99155.91
2019-03-11T07:01:46.037Z,99167.22
2019-03-11T07:04:12.840Z,99146.02
2019-03-11T07:06:39.635Z,99155.70
2019-03-11T07:09:07.749Z,99149.57
2019-03-11T07:11:34.876Z,99133.23
2019-03-11T07:14:01.608Z,99147.68
2019-03-11T07:16:28.317Z,99136.47
2019-03-11T07:18:55.016Z,99164.44
2019-03-11T07:21:21.600Z,99185.11
2019-03-11T07:23:48.271Z,99168.78
2019-03-11T07:26:15.079Z,99175.25
2019-03-11T07:28:41.765Z,99189.98
2019-03-11T07:31:08.473Z,99185.56
2019-03-11T07:33:35.056Z,99194.18
2019-03-11T07:36:01.861Z,99197.03
2019-03-11T07:38:28.569Z,99193.04
2019-03-11T07:40:55.407Z,99187.95
2019-03-11T07:43:22.111Z,99198.58
2019-03-11T07:45:48.791Z,99193.52
2019-03-11T07:48:15.399Z,99200.47
2019-03-11T07:50:42.217Z,99210.91
2019-03-11T07:53:09.213Z,99200.70
2019-03-11T07:55:35.929Z,99197.02
2019-03-11T07:58:02.726Z,99182.30
2019-03-11T08:00:29.928Z,99208.09
2019-03-11T08:02:56.554Z,99200.16
2019-03-11T08:05:24.780Z,99208.28
2019-03-11T08:07:51.641Z,99197.85
2019-03-11T08:10:18.342Z,99213.75
2019-03-11T08:12:45.115Z,99203.36
2019-03-11T08:15:11.996Z,99209.37
2019-03-11T08:17:39.191Z,99232.78
2019-03-11T08:20:07.556Z,99208.73
2019-03-11T08:22:34.379Z,99184.30
2019-03-11T08:25:01.072Z,99216.95
2019-03-11T08:27:27.786Z,99215.22
2019-03-11T08:29:54.608Z,99207.09
2019-03-11T08:32:21.297Z,99191.99
2019-03-11T08:34:48.101Z,99218.23
2019-03-11T08:37:14.815Z,99226.49
2019-03-11T08:39:41.501Z,99228.85
2019-03-11T08:42:08.479Z,99231.77
2019-03-11T08:44:35.179Z,99186.05
2019-03-11T08:47:01.987Z,99196.47
2019-03-11T08:49:28.667Z,99234.08
2019-03-11T08:51:55.382Z,99221.53
2019-03-11T08:54:21.984Z,99230.76
2019-03-11T08:56:48.688Z,99215.81
2019-03-11T08:59:15.719Z,99223.42
2019-03-11T09:01:42.533Z,99210.98
2019-03-11T09:04:09.327Z,99221.67
2019-03-11T09:06:36.023Z,99225.68
2019-03-11T09:09:05.554Z,99236.17
2019-03-11T09:11:32.303Z,99228.77
2019-03-11T09:14:00.211Z,99246.57
2019-03-11T09:16:27.028Z,99291.41
2019-03-11T09:18:53.604Z,99254.66
2019-03-11T09:21:20.514Z,99223.05
2019-03-11T09:23:47.325Z,99237.73
2019-03-11T09:26:14.139Z,99255.84
2019-03-11T09:28:41.324Z,99251.55
2019-03-11T09:31:08.429Z,99254.09
2019-03-11T09:33:35.116Z,99262.98
2019-03-11T09:36:01.827Z,99291.66
2019-03-11T09:38:28.436Z,99154.43
2019-03-11T09:40:55.254Z,99260.16
2019-03-11T09:43:21.967Z,99270.34
2019-03-11T09:45:48.775Z,99258.84
2019-03-11T09:48:15.458Z,99279.20
2019-03-11T09:50:42.242Z,99307.95
2019-03-11T09:53:09.051Z,99281.91
2019-03-11T09:55:36.251Z,99293.44
2019-03-11T09:58:03.062Z,99284.80
2019-03-11T10:00:51.255Z,99307.15
2019-03-11T10:03:17.998Z,99273.66
2019-03-11T10:05:44.781Z,99241.66
2019-03-11T10:08:11.842Z,99302.58
2019-03-11T10:10:38.551Z,99306.52
2019-03-11T10:13:05.349Z,99297.45
2019-03-11T10:15:32.125Z,99311.88
2019-03-11T10:17:58.942Z,99296.15
2019-03-11T10:20:25.728Z,99301.40
2019-03-11T10:22:52.329Z,99316.14
2019-03-11T10:25:19.106Z,99327.80
2019-03-11T10:27:45.969Z,99325.42
2019-03-11T10:30:14.066Z,99324.86
2019-03-11T10:32:41.196Z,99302.67
2019-03-11T10:35:30.202Z,99326.63
2019-03-11T10:37:38.428Z,99320.66
2019-03-11T10:40:07.487Z,99337.59
2019-03-11T10:42:34.275Z,99339.03
2019-03-11T10:45:00.982Z,99340.13
2019-03-11T10:47:27.671Z,99343.34
2019-03-11T10:49:54.435Z,99341.22
2019-03-11T10:52:21.128Z,99331.30
2019-03-11T10:54:47.825Z,99308.54
2019-03-11T10:57:14.492Z,99340.27
2019-03-11T10:59:41.100Z,99347.48
2019-03-11T11:02:29.495Z,99336.95
2019-03-11T11:04:56.088Z,99318.59
2019-03-11T11:07:22.912Z,99366.98
2019-03-11T11:09:49.605Z,99357.43
2019-03-11T11:12:16.395Z,99370.36
2019-03-11T11:14:43.193Z,99416.14
2019-03-11T11:17:09.898Z,99381.63
2019-03-11T11:19:36.882Z,99344.56
2019-03-11T11:22:03.761Z,99388.88
2019-03-11T11:24:30.584Z,99374.41
2019-03-11T11:26:57.369Z,99390.70
2019-03-11T11:29:24.066Z,99379.61
2019-03-11T11:31:50.881Z,99389.06
2019-03-11T11:34:17.675Z,99385.48
2019-03-11T11:36:44.348Z,99385.97
2019-03-11T11:39:11.144Z,99352.30
2019-03-11T11:41:37.834Z,99396.19
2019-03-11T11:44:04.619Z,99407.89
2019-03-11T11:46:31.194Z,99404.70
2019-03-11T11:48:57.882Z,99402.70
2019-03-11T11:51:24.664Z,99381.06
2019-03-11T11:53:51.364Z,99402.33
2019-03-11T11:56:18.064Z,99403.72
2019-03-11T11:58:44.757Z,99419.79
2019-03-11T12:01:11.344Z,99410.83
2019-03-11T12:03:38.132Z,99410.65
2019-03-11T12:06:04.909Z,99415.52
2019-03-11T12:08:32.735Z,99397.47
2019-03-11T12:10:59.376Z,99397.60
2019-03-11T12:13:26.167Z,99405.98
2019-03-11T12:15:52.935Z,99415.86
2019-03-11T12:18:19.610Z,99417.14
2019-03-11T12:20:46.401Z,99410.16
2019-03-11T12:23:13.189Z,99393.57
2019-03-11T12:25:39.899Z,99424.20
2019-03-11T12:28:06.668Z,99409.02
2019-03-11T12:30:33.512Z,99415.43
2019-03-11T12:33:00.298Z,99404.53
2019-03-11T12:35:27.297Z,99423.46
2019-03-11T12:37:54.567Z,99411.94
2019-03-11T12:40:21.667Z,99426.30
2019-03-11T12:42:48.550Z,99430.66
2019-03-11T12:45:15.365Z,99434.64
2019-03-11T12:47:42.215Z,99435.73
2019-03-11T12:50:14.882Z,99442.29
2019-03-11T12:52:41.813Z,99432.50
2019-03-11T12:55:08.571Z,99441.11
2019-03-11T12:57:35.351Z,99430.20
2019-03-11T13:00:02.308Z,99432.02
2019-03-11T13:02:28.996Z,99434.59
2019-03-11T13:04:55.718Z,99441.05
2019-03-11T13:07:22.392Z,99440.62
2019-03-11T13:09:49.095Z,99429.53
2019-03-11T13:12:15.871Z,99434.98
2019-03-11T13:14:42.570Z,99432.90
2019-03-11T13:17:09.385Z,99441.81
2019-03-11T13:19:36.169Z,99428.91
2019-03-11T13:22:02.952Z,99437.19
2019-03-11T13:24:29.640Z,99430.22
2019-03-11T13:26:56.335Z,99429.53
2019-03-11T13:29:23.012Z,99416.81
2019-03-11T13:31:49.609Z,99418.62
2019-03-11T13:34:16.276Z,99403.53
2019-03-11T13:36:42.979Z,99391.27
2019-03-11T13:39:10.294Z,99411.48
2019-03-11T13:41:37.007Z,99402.16
2019-03-11T13:44:03.786Z,99405.72
2019-03-11T13:46:30.580Z,99423.41
2019-03-11T13:48:57.248Z,99413.13
2019-03-11T13:51:23.953Z,99411.38
2019-03-11T13:53:51.019Z,99411.31
2019-03-11T13:56:17.937Z,99406.92
2019-03-11T13:58:44.612Z,99409.38
2019-03-11T14:01:11.405Z,99407.30
2019-03-11T14:03:39.058Z,99392.97
2019-03-11T14:06:05.888Z,99366.83
2019-03-11T14:08:32.459Z,99385.60
2019-03-11T14:10:59.272Z,99385.60
2019-03-11T14:13:25.945Z,99385.96
2019-03-11T14:15:52.745Z,99399.56
2019-03-11T14:18:19.531Z,99386.05
2019-03-11T14:20:46.227Z,99401.55
2019-03-11T14:23:13.050Z,99405.98
2019-03-11T14:25:39.735Z,99393.88
2019-03-11T14:28:06.336Z,99386.17
2019-03-11T14:30:33.097Z,99421.77
2019-03-11T14:32:59.902Z,99403.73
2019-03-11T14:35:27.449Z,99410.38
2019-03-11T14:37:54.052Z,99405.00
2019-03-11T14:40:20.867Z,99403.72
2019-03-11T14:42:47.662Z,99388.50
2019-03-11T14:45:14.483Z,99369.86
2019-03-11T14:47:41.295Z,99395.69
2019-03-11T14:50:08.314Z,99368.94
2019-03-11T14:52:35.014Z,99372.12
2019-03-11T14:55:01.701Z,99397.12
2019-03-11T14:57:28.495Z,99396.20
2019-03-11T14:59:55.091Z,99406.30
2019-03-11T15:02:21.881Z,99387.55
2019-03-11T15:04:50.882Z,99401.47
2019-03-11T15:07:17.282Z,99416.14
2019-03-11T15:09:51.361Z,99414.66
2019-03-11T15:12:12.449Z,99404.61
2019-03-11T15:14:39.218Z,99419.89
2019-03-11T15:17:05.903Z,99420.19
2019-03-11T15:19:32.574Z,99402.14
2019-03-11T15:21:59.393Z,99387.02
2019-03-11T15:24:26.169Z,99406.84
2019-03-11T15:26:52.972Z,99408.20
2019-03-11T15:29:19.757Z,99409.25
2019-03-11T15:31:46.488Z,99433.98
2019-03-11T15:34:13.300Z,99424.28
2019-03-11T15:36:39.991Z,99427.48
2019-03-11T15:39:07.204Z,99431.86
2019-03-11T15:41:34.041Z,99423.71
2019-03-11T15:44:00.643Z,99432.31
2019-03-11T15:46:27.306Z,99337.59
2019-03-11T15:48:54.103Z,99404.69
2019-03-11T15:51:21.453Z,99409.92
2019-03-11T15:53:48.192Z,99415.61
2019-03-11T15:56:14.901Z,99405.36
2019-03-11T15:58:41.829Z,99419.66
2019-03-11T16:01:08.621Z,99362.05
2019-03-11T16:03:36.564Z,99396.20
2019-03-11T16:06:03.526Z,99378.97
2019-03-11T16:08:30.328Z,99379.19
2019-03-11T16:10:57.117Z,99394.41
2019-03-11T16:13:23.819Z,99386.92
2019-03-11T16:15:50.628Z,99399.73
2019-03-11T16:18:17.423Z,99393.91
2019-03-11T16:20:44.204Z,99408.28
2019-03-11T16:23:10.939Z,99405.62
2019-03-11T16:25:37.731Z,99410.75
2019-03-11T16:28:04.511Z,99405.08
2019-03-11T16:30:31.202Z,99417.80
2019-03-11T16:33:00.224Z,99379.33
2019-03-11T16:35:27.347Z,99419.17
2019-03-11T16:37:54.241Z,99416.61
2019-03-11T16:40:22.183Z,99425.33
2019-03-11T16:42:48.982Z,99432.00
2019-03-11T16:45:16.883Z,99415.43
2019-03-11T16:47:43.693Z,99429.98
2019-03-11T16:50:12.382Z,99439.34
2019-03-11T16:52:38.988Z,99428.16
2019-03-11T16:55:07.509Z,99454.43
2019-03-11T16:57:34.184Z,99455.70
2019-03-11T17:00:00.992Z,99455.89
2019-03-11T17:02:27.671Z,99471.31
2019-03-11T17:04:54.471Z,99460.91
2019-03-11T17:07:21.257Z,99466.58
2019-03-11T17:09:47.954Z,99465.84
2019-03-11T17:12:14.734Z,99481.55
2019-03-11T17:14:41.441Z,99471.30
2019-03-11T17:17:08.289Z,99466.55
2019-03-11T17:19:34.905Z,99458.33
2019-03-11T17:22:01.591Z,99507.45
2019-03-11T17:24:28.404Z,99522.20
2019-03-11T17:26:55.184Z,99513.05
2019-03-11T17:29:22.002Z,99526.66
2019-03-11T17:31:48.686Z,99523.45
2019-03-11T17:34:15.380Z,99529.09
2019-03-11T17:36:42.094Z,99538.33
2019-03-11T17:39:09.369Z,99530.16
2019-03-11T17:41:36.192Z,99549.91
2019-03-11T17:44:03.152Z,99554.67
2019-03-11T17:46:30.034Z,99562.45
2019-03-11T17:48:56.824Z,99565.84
2019-03-11T17:51:23.636Z,99575.59
2019-03-11T17:53:50.412Z,99585.75
2019-03-11T17:56:17.115Z,99575.52
2019-03-11T17:58:43.927Z,99578.50
2019-03-11T18:01:10.738Z,99606.59
2019-03-11T18:03:37.513Z,99499.25
2019-03-11T18:06:11.687Z,99624.95
2019-03-11T18:08:33.006Z,99628.86
2019-03-11T18:10:59.710Z,99619.17
2019-03-11T18:13:26.499Z,99624.24
2019-03-11T18:15:53.100Z,99643.31
2019-03-11T18:18:19.879Z,99660.19
2019-03-11T18:20:46.677Z,99667.47
2019-03-11T18:23:13.367Z,99671.13
2019-03-11T18:25:40.172Z,99682.01
2019-03-11T18:28:06.944Z,99691.58
2019-03-11T18:30:33.962Z,99699.54
2019-03-11T18:33:00.766Z,99710.81
2019-03-11T18:35:27.893Z,99713.46
2019-03-11T18:38:03.280Z,99721.16
2019-03-11T18:40:23.242Z,99696.98
2019-03-11T18:42:50.062Z,99754.95
2019-03-11T18:45:16.957Z,99762.59
2019-03-11T18:47:43.872Z,99774.52
2019-03-11T18:50:11.039Z,99785.08
2019-03-11T18:52:37.808Z,99790.96
2019-03-11T18:55:04.999Z,99800.63
2019-03-11T18:57:33.027Z,99807.25
2019-03-11T18:59:59.722Z,99816.30
2019-03-11T19:02:26.525Z,99834.22
2019-03-11T19:04:53.187Z,99839.16
2019-03-11T19:07:19.988Z,99851.50
2019-03-11T19:09:46.625Z,99870.48
2019-03-11T19:12:13.378Z,99863.59
2019-03-11T19:14:40.025Z,99891.81
2019-03-11T19:17:06.799Z,99891.02
2019-03-11T19:19:45.371Z,99890.80
2019-03-11T19:22:02.203Z,99909.78
2019-03-11T19:24:29.085Z,99912.95
2019-03-11T19:27:15.356Z,99911.06
2019-03-11T19:29:42.136Z,99924.59
2019-03-11T19:32:09.280Z,99930.61
2019-03-11T19:34:35.952Z,99940.95
2019-03-11T19:37:02.738Z,99941.86
2019-03-11T19:39:29.440Z,99962.59
2019-03-11T19:41:56.228Z,99983.73
2019-03-11T19:44:22.845Z,100000.43
2019-03-11T19:46:49.729Z,100014.98
2019-03-11T19:49:16.483Z,100006.09
2019-03-11T19:51:43.350Z,100010.76
2019-03-11T19:54:10.165Z,100024.14
2019-03-11T19:56:36.828Z,100034.08
2019-03-11T19:59:03.667Z,100041.33
2019-03-11T20:01:30.345Z,100048.89
2019-03-11T20:03:57.122Z,100053.78
2019-03-11T20:06:23.930Z,100055.50
2019-03-11T20:08:51.215Z,100058.69
2019-03-11T20:11:17.822Z,100070.98
2019-03-11T20:13:44.796Z,100081.55
2019-03-11T20:16:11.678Z,100075.41
2019-03-11T20:18:38.365Z,100079.49
2019-03-11T20:21:05.287Z,100078.73
2019-03-11T20:23:32.441Z,100088.34
2019-03-11T20:25:59.263Z,100086.66
2019-03-11T20:28:25.984Z,100093.68
2019-03-11T20:30:52.830Z,100091.48
2019-03-11T20:33:20.010Z,100105.97
2019-03-11T20:35:46.619Z,100105.90
2019-03-11T20:38:13.347Z,100101.13
2019-03-11T20:40:40.166Z,100119.84
2019-03-11T20:43:07.007Z,100123.97
2019-03-11T20:45:33.818Z,100126.73
2019-03-11T20:48:00.568Z,100135.03
2019-03-11T20:50:27.463Z,100138.64
2019-03-11T20:52:54.227Z,100152.14
2019-03-11T20:55:20.924Z,100143.33
2019-03-11T20:57:47.891Z,100147.53
2019-03-11T21:00:16.547Z,100161.28
2019-03-11T21:02:43.409Z,100178.11
2019-03-11T21:05:10.213Z,100176.31
2019-03-11T21:07:36.859Z,100186.09
2019-03-11T21:10:04.653Z,100169.34
2019-03-11T21:12:31.468Z,100149.86
2019-03-11T21:14:58.319Z,100158.64
2019-03-11T21:17:28.268Z,100153.66
2019-03-11T21:19:53.706Z,100164.60
2019-03-11T21:22:20.443Z,100171.55
2019-03-11T21:24:55.526Z,100179.08
2019-03-11T21:27:16.019Z,100178.88
2019-03-11T21:29:42.693Z,100173.79
2019-03-11T21:32:09.524Z,100182.77
2019-03-11T21:34:36.239Z,100189.42
2019-03-11T21:37:03.086Z,100191.98
2019-03-11T21:39:29.957Z,100207.14
2019-03-11T21:41:56.803Z,100219.52
2019-03-11T21:44:23.485Z,100217.44
2019-03-11T21:46:50.159Z,100223.25
2019-03-11T21:49:17.021Z,100231.91
2019-03-11T21:51:43.789Z,100228.52
2019-03-11T21:54:10.603Z,100232.39
2019-03-11T21:56:37.280Z,100236.44
2019-03-11T21:59:04.182Z,100239.09
2019-03-11T22:01:30.860Z,100240.81
2019-03-11T22:03:57.471Z,100243.02
2019-03-11T22:06:24.275Z,100241.58
2019-03-11T22:08:51.106Z,100245.86
2019-03-11T22:11:17.888Z,100246.87
2019-03-11T22:13:44.462Z,100255.09
2019-03-11T22:16:11.256Z,100253.13
2019-03-11T22:18:38.036Z,100267.16
2019-03-11T22:21:04.837Z,100264.23
2019-03-11T22:23:31.543Z,100271.93
2019-03-11T22:25:58.115Z,100271.48
2019-03-11T22:28:24.817Z,100274.34
2019-03-11T22:30:51.507Z,100279.39
2019-03-11T22:33:18.295Z,100276.62
2019-03-11T22:35:45.083Z,100276.97
2019-03-11T22:38:11.763Z,100271.08
2019-03-11T22:40:38.469Z,100276.66
2019-03-11T22:43:05.258Z,100277.06
2019-03-11T22:45:32.092Z,100286.29
2019-03-11T22:47:58.755Z,100284.23
2019-03-11T22:50:25.498Z,100293.34
2019-03-11T22:52:52.169Z,100292.53
2019-03-11T22:55:19.121Z,100291.86
2019-03-11T22:57:45.926Z,100294.50
2019-03-11T23:00:24.195Z,100299.12
2019-03-11T23:02:50.975Z,100308.22
2019-03-11T23:05:17.765Z,100312.07
2019-03-11T23:07:44.556Z,100317.81
2019-03-11T23:10:11.381Z,100314.20
2019-03-11T23:12:38.062Z,100312.13
2019-03-11T23:15:05.210Z,100311.05
2019-03-11T23:17:31.988Z,100311.98
2019-03-11T23:19:58.572Z,100307.32
2019-03-11T23:22:25.268Z,100306.75
2019-03-11T23:24:51.857Z,100312.19
2019-03-11T23:27:18.646Z,100301.53
2019-03-11T23:29:45.596Z,100303.20
2019-03-11T23:32:12.669Z,100311.02
2019-03-11T23:34:39.447Z,100314.50
2019-03-11T23:37:06.248Z,100326.77
2019-03-11T23:39:32.953Z,100307.96
2019-03-11T23:41:59.765Z,100312.89
2019-03-11T23:44:26.462Z,100327.16
2019-03-11T23:46:53.152Z,100332.14
2019-03-11T23:49:19.858Z,100332.30
2019-03-11T23:51:47.386Z,100332.66
2019-03-11T23:54:14.186Z,100332.30
2019-03-11T23:56:40.880Z,100321.78
2019-03-11T23:59:07.569Z,100333.45
